Terminal Aerodrome Forecast
Issued by NWS Cleveland, OH

Home | Current Version | Previous Version | Text Only | Print | Product List | Glossary Off
Versions: 1 2 3 4 5 6 7 8 9 10 11 12 13 14 15 16 17 18 19 20 21 22 23 24 25 26 27 28 29 30 31 32 33

627
FTUS41 KCLE 200209 AAB
TAFCLE
TAF AMD
KCLE 200209Z 2002/2106 20008KT P6SM VCSH SCT015 BKN025
      TEMPO 2002/2003 3SM -SHRA
     FM200800 31006KT P6SM BKN003 OVC015
     FM201800 36008KT P6SM BKN035
     FM210200 VRB03KT P6SM FEW090 SCT130=

USA.gov is the U.S. government's official web portal to all federal, state and local government web resources and services.